< Cyclone 198408 1984 Season Cyclone 198410 >
Cyclone 198409 (GRACE)
General InformationTrack Information on Google MapsList of All Images || ResourceGoogle EarthGE AnimationAtom FeedGeoJSON
Detalied Best Track (Time Zone = UTC)
Year Month Day Hour Lat. Long. Pressure (hPa) Wind (kt) Class Image Chart
1984 1 11 00 -18.4 148.5 1007 0 0 Image --
1984 1 11 03 -17.9 148.7 1007 0 0 Image --
1984 1 11 06 -17.5 149.0 1004 0 0 Image --
1984 1 11 09 -17.2 149.2 1005 0 0 Image --
1984 1 11 12 -16.9 149.4 1006 0 0 Image --
1984 1 11 18 -16.5 149.6 1003 0 0 Image --
1984 1 12 00 -16.1 149.8 1003 0 0 Image --
1984 1 12 06 -15.6 150.0 1003 0 0 Image --
1984 1 12 12 -15.3 150.2 1000 0 0 Image --
1984 1 12 18 -14.9 150.6 997 0 0 Image --
1984 1 13 00 -14.3 150.8 999 0 0 Image --
1984 1 13 06 -14.3 150.8 999 0 0 Image --
1984 1 13 12 -14.3 150.8 999 0 0 Image --
1984 1 13 18 -14.6 150.8 998 0 0 Image --
1984 1 14 00 -15.4 150.9 998 0 0 Image --
1984 1 14 03 -15.8 150.9 997 0 0 Image --
1984 1 14 06 -16.3 150.9 995 0 0 Image --
1984 1 14 12 -16.9 150.9 997 0 0 Image --
1984 1 14 18 -17.7 150.9 995 0 0 Image --
1984 1 15 00 -18.3 151.0 991 0 0 Image --
1984 1 15 06 -18.7 151.4 986 0 0 Image --
1984 1 15 12 -19.0 151.9 975 0 0 Image --
1984 1 15 18 -19.6 152.4 975 0 0 Image --
1984 1 16 00 -20.2 152.9 975 0 0 Image --
1984 1 16 06 -20.8 153.9 970 0 0 Image --
1984 1 16 12 -21.4 154.6 970 0 0 Image --
1984 1 16 18 -22.1 155.1 970 0 0 Image --
1984 1 17 00 -22.8 155.4 976 0 0 Image --
1984 1 17 06 -23.0 155.8 980 0 0 Image --
1984 1 17 12 -23.0 156.5 980 0 0 Image --
1984 1 17 18 -23.1 157.5 982 0 0 Image --
1984 1 18 00 -23.2 158.4 982 0 0 Image --
1984 1 18 06 -23.4 159.4 985 0 0 Image --
1984 1 18 12 -23.5 160.3 985 0 0 Image --
1984 1 18 18 -23.5 160.9 988 0 0 Image --
1984 1 19 00 -23.6 161.4 990 0 0 Image --
1984 1 19 06 -23.6 161.8 992 0 0 Image --
1984 1 19 12 -23.5 162.0 995 0 0 Image --
1984 1 19 18 -23.4 162.2 996 0 0 Image --
1984 1 20 00 -23.4 162.4 1000 0 0 Image --
1984 1 20 06 -23.4 162.6 1000 0 0 Image --
1984 1 20 12 -23.3 163.0 1001 0 0 Image --
< Cyclone 198408 1984 Season Cyclone 198410 >

Help